Mc Pherson, Kansas
Current Conditions -  °F | °C
As of 5:52 AM on Thursday 23 Oct 2014 (Local Time) from KHUT Reporting Station
Overcast Overcast  
Wind Chill: 61°   Ceiling: 2500
Heat Index: 61°   Visibility: 7mi
Dew Point: 57°   Wind: 6mph
Humidity: 87%   Direction: 170°S
Pressure: 30.07"   Gusts: NA
Location:  38.4089°N, 97.6556°W
Report Text: KHUT 231052Z AUTO 17005KT 7SM BKN025 OVC033 16/14 A3007 RMK AO2 SLP164 T01610139
Loading
Personal Weather Stations






























Interactive Weather Map New forecast layout! Learn more

10-Day Weather Forecast

Advertisements
Track Severe Weather on mobile